Time;durP1;ratioP1;P1;durP2;ratioP2;P2;SDS_P1;SDS_P2;PMS_P1;PMS_P2;Temp;Humidity;BMP_temperature;BMP_pressure;BME280_temperature;BME280_humidity;BME280_pressure;Samples;Min_cycle;Max_cycle;Signal;HPM_P1;HPM_P2
2021/04/06 00:01:17;;;;;;;;;2.50;2.25;;;;;;;;3572307;39;113995;-75
2021/04/06 00:03:47;;;;;;;;;3.50;2.00;;;;;;;;3570586;39;111823;-74
2021/04/06 00:06:13;;;;;;;;;2.50;2.50;;;;;;;;3571615;39;113206;-73
2021/04/06 00:08:39;;;;;;;;;3.25;3.00;;;;;;;;3574456;39;113918;-74
2021/04/06 00:11:06;;;;;;;;;2.25;2.25;;;;;;;;3570554;39;113409;-73
2021/04/06 00:13:37;;;;;;;;;5.50;3.75;;;;;;;;3571604;39;114182;-74
2021/04/06 00:16:04;;;;;;;;;4.25;3.00;;;;;;;;3570876;39;111902;-76
2021/04/06 00:18:31;;;;;;;;;3.00;3.00;;;;;;;;3571203;39;113282;-75
2021/04/06 00:20:59;;;;;;;;;5.00;2.50;;;;;;;;3568374;39;113950;-74
2021/04/06 00:23:26;;;;;;;;;4.25;2.25;;;;;;;;3571178;39;112570;-75
2021/04/06 00:25:54;;;;;;;;;4.75;3.50;;;;;;;;3570587;39;113323;-74
2021/04/06 00:28:24;;;;;;;;;3.00;3.00;;;;;;;;3568131;39;114518;-74
2021/04/06 00:30:51;;;;;;;;;3.00;2.50;;;;;;;;3573416;39;112231;-75
2021/04/06 00:33:19;;;;;;;;;3.00;3.00;;;;;;;;3570037;39;114437;-74
2021/04/06 00:35:51;;;;;;;;;3.75;3.00;;;;;;;;3570557;39;112378;-74
2021/04/06 00:38:18;;;;;;;;;3.75;3.00;;;;;;;;3571042;39;113199;-73
2021/04/06 00:40:46;;;;;;;;;2.50;2.50;;;;;;;;3570413;39;114252;-73
2021/04/06 00:43:12;;;;;;;;;3.00;3.00;;;;;;;;3571041;39;111738;-75
2021/04/06 00:45:40;;;;;;;;;3.00;3.00;;;;;;;;3569677;39;113612;-75
2021/04/06 00:48:10;;;;;;;;;3.00;3.00;;;;;;;;3571055;39;113842;-76
2021/04/06 00:50:37;;;;;;;;;2.25;2.25;;;;;;;;3571759;39;113136;-76
2021/04/06 00:53:03;;;;;;;;;3.25;3.00;;;;;;;;3572644;39;113321;-74
2021/04/06 00:55:34;;;;;;;;;3.00;3.00;;;;;;;;3572218;39;112446;-75
2021/04/06 00:58:00;;;;;;;;;5.00;4.00;;;;;;;;3571314;39;113208;-75
2021/04/06 01:00:28;;;;;;;;;3.50;3.25;;;;;;;;3569856;39;113846;-75
2021/04/06 01:02:58;;;;;;;;;3.50;3.50;;;;;;;;3572414;39;112385;-75
2021/04/06 01:05:25;;;;;;;;;4.00;2.75;;;;;;;;3570895;39;113204;-75
2021/04/06 01:07:51;;;;;;;;;3.00;3.00;;;;;;;;3570074;39;113943;-75
2021/04/06 01:10:18;;;;;;;;;3.00;3.00;;;;;;;;3570704;39;111902;-75
2021/04/06 01:12:46;;;;;;;;;4.00;3.00;;;;;;;;3572397;39;113659;-75
2021/04/06 01:15:13;;;;;;;;;3.50;3.50;;;;;;;;3572270;39;114425;-75
2021/04/06 01:17:39;;;;;;;;;4.00;3.00;;;;;;;;3571555;39;113262;-72
2021/04/06 01:20:07;;;;;;;;;3.00;3.00;;;;;;;;3570277;39;113823;-76
2021/04/06 01:22:33;;;;;;;;;2.75;2.75;;;;;;;;3570489;39;111855;-74
2021/04/06 01:25:00;;;;;;;;;2.00;2.00;;;;;;;;3571210;39;114360;-75
2021/04/06 01:27:26;;;;;;;;;3.50;3.50;;;;;;;;3569821;39;114070;-73
2021/04/06 01:29:54;;;;;;;;;5.00;3.50;;;;;;;;3572232;39;111940;-74
2021/04/06 01:32:21;;;;;;;;;3.00;3.00;;;;;;;;3570777;39;113465;-74
2021/04/06 01:34:48;;;;;;;;;2.00;2.00;;;;;;;;3568050;39;114419;-75
2021/04/06 01:37:18;;;;;;;;;3.00;3.00;;;;;;;;3574898;39;113523;-74
2021/04/06 01:39:45;;;;;;;;;3.50;3.50;;;;;;;;3569060;39;113829;-75
2021/04/06 01:42:13;;;;;;;;;3.25;3.00;;;;;;;;3570781;39;112050;-75
2021/04/06 01:44:42;;;;;;;;;3.00;1.00;;;;;;;;3570535;39;113823;-72
2021/04/06 01:47:12;;;;;;;;;4.50;4.00;;;;;;;;3569968;39;114453;-74
2021/04/06 01:49:39;;;;;;;;;4.50;4.00;;;;;;;;3570488;39;112340;-74
2021/04/06 01:52:05;;;;;;;;;4.75;3.50;;;;;;;;3570495;39;113430;-74
2021/04/06 01:54:34;;;;;;;;;7.75;4.00;;;;;;;;3570043;39;114096;-74
2021/04/06 01:57:05;;;;;;;;;4.50;4.00;;;;;;;;3573196;39;112162;-74
2021/04/06 01:59:35;;;;;;;;;3.75;3.75;;;;;;;;3570080;39;114040;-75
2021/04/06 02:02:02;;;;;;;;;3.75;3.00;;;;;;;;3570985;39;112750;-77
2021/04/06 02:04:29;;;;;;;;;6.50;4.50;;;;;;;;3570173;39;113424;-74
2021/04/06 02:06:57;;;;;;;;;6.00;4.00;;;;;;;;3571434;39;113889;-74
2021/04/06 02:09:23;;;;;;;;;6.75;5.00;;;;;;;;3570545;39;112298;-74
2021/04/06 02:11:49;;;;;;;;;3.75;3.75;;;;;;;;3570067;39;113486;-75
2021/04/06 02:14:16;;;;;;;;;5.25;4.00;;;;;;;;3569498;39;114186;-75
2021/04/06 02:16:51;;;;;;;;;4.00;4.00;;;;;;;;3569895;39;111852;-75
2021/04/06 02:19:21;;;;;;;;;3.25;3.25;;;;;;;;3572446;39;113221;-73
2021/04/06 02:21:50;;;;;;;;;4.50;3.00;;;;;;;;3567947;39;111815;-74
2021/04/06 02:24:31;;;;;;;;;7.00;3.00;;;;;;;;3570068;39;113562;-74
2021/04/06 02:27:01;;;;;;;;;4.50;2.50;;;;;;;;3569834;39;114013;-75
2021/04/06 02:29:27;;;;;;;;;3.50;3.25;;;;;;;;3570352;39;112196;-74
2021/04/06 02:31:54;;;;;;;;;4.00;4.00;;;;;;;;3570331;39;113319;-74
2021/04/06 02:34:20;;;;;;;;;4.00;4.00;;;;;;;;3569649;39;113480;-75
2021/04/06 02:36:46;;;;;;;;;4.50;4.50;;;;;;;;3572174;39;111858;-74
2021/04/06 02:39:12;;;;;;;;;2.25;2.25;;;;;;;;3569984;39;113414;-73
2021/04/06 02:41:38;;;;;;;;;3.00;3.00;;;;;;;;3572943;39;114133;-73
2021/04/06 02:44:05;;;;;;;;;3.75;3.75;;;;;;;;3570043;39;113640;-74
2021/04/06 02:46:32;;;;;;;;;6.00;6.00;;;;;;;;3568294;39;114322;-76
2021/04/06 02:49:00;;;;;;;;;3.50;3.50;;;;;;;;3571487;39;111781;-75
2021/04/06 02:51:27;;;;;;;;;4.50;4.00;;;;;;;;3570352;39;113828;-74
2021/04/06 02:53:53;;;;;;;;;6.75;4.00;;;;;;;;3569419;39;114668;-74
2021/04/06 02:56:30;;;;;;;;;4.00;4.00;;;;;;;;3569935;39;111947;-73
2021/04/06 02:59:11;;;;;;;;;4.50;4.00;;;;;;;;3568335;39;113337;-74
2021/04/06 03:01:37;;;;;;;;;8.00;6.00;;;;;;;;3569253;39;113938;-73
2021/04/06 03:04:15;;;;;;;;;6.00;4.00;;;;;;;;3573555;39;112429;-75
2021/04/06 03:06:41;;;;;;;;;5.50;4.00;;;;;;;;3571031;39;114105;-74
2021/04/06 03:09:07;;;;;;;;;4.50;4.00;;;;;;;;3569467;39;111907;-75
2021/04/06 03:11:40;;;;;;;;;7.50;7.00;;;;;;;;3570848;39;113644;-74
2021/04/06 03:14:06;;;;;;;;;6.75;6.75;;;;;;;;3569106;39;113912;-74
2021/04/06 03:16:33;;;;;;;;;3.00;3.00;;;;;;;;3569853;39;111910;-75
2021/04/06 03:19:02;;;;;;;;;4.75;3.00;;;;;;;;3570333;39;113329;-75
2021/04/06 03:21:28;;;;;;;;;5.50;3.25;;;;;;;;3569106;39;114377;-73
2021/04/06 03:23:55;;;;;;;;;4.00;4.00;;;;;;;;3569225;39;111857;-75
2021/04/06 03:26:22;;;;;;;;;3.00;3.00;;;;;;;;3572156;39;113391;-73
2021/04/06 03:28:48;;;;;;;;;5.00;4.00;;;;;;;;3569610;39;111864;-73
2021/04/06 03:31:17;;;;;;;;;4.00;3.25;;;;;;;;3569968;39;113455;-74
2021/04/06 03:33:44;;;;;;;;;3.00;3.00;;;;;;;;3569226;39;114072;-74
2021/04/06 03:36:18;;;;;;;;;8.00;4.00;;;;;;;;3569504;39;113699;-75
2021/04/06 03:38:45;;;;;;;;;6.00;4.00;;;;;;;;3569810;39;114224;-73
2021/04/06 03:41:11;;;;;;;;;4.00;4.00;;;;;;;;3569217;39;113971;-75
2021/04/06 03:43:41;;;;;;;;;3.25;3.25;;;;;;;;3570895;39;111801;-75
2021/04/06 03:46:07;;;;;;;;;4.00;4.00;;;;;;;;3569076;39;113315;-74
2021/04/06 03:48:35;;;;;;;;;4.00;4.00;;;;;;;;3572403;39;112025;-73
2021/04/06 03:51:04;;;;;;;;;3.00;3.00;;;;;;;;3570254;39;113898;-74
2021/04/06 03:53:37;;;;;;;;;3.50;3.50;;;;;;;;3568785;39;114087;-74
2021/04/06 03:56:05;;;;;;;;;3.25;3.25;;;;;;;;3570182;39;111870;-73
2021/04/06 03:58:34;;;;;;;;;3.50;3.00;;;;;;;;3569505;39;112877;-74
2021/04/06 04:01:00;;;;;;;;;4.00;3.00;;;;;;;;3568951;39;114131;-74
2021/04/06 04:03:26;;;;;;;;;2.00;2.00;;;;;;;;3571308;39;113021;-75
2021/04/06 04:05:52;;;;;;;;;3.00;3.00;;;;;;;;3572499;39;113803;-75
2021/04/06 04:08:18;;;;;;;;;4.00;2.75;;;;;;;;3573183;39;113817;-75
2021/04/06 04:10:44;;;;;;;;;2.00;2.00;;;;;;;;3570686;39;114440;-74
2021/04/06 04:13:11;;;;;;;;;3.00;3.00;;;;;;;;3570390;39;113961;-74
2021/04/06 04:15:37;;;;;;;;;2.00;2.00;;;;;;;;3570656;39;111893;-74
2021/04/06 04:18:04;;;;;;;;;2.00;2.00;;;;;;;;3571991;39;113376;-75
2021/04/06 04:20:30;;;;;;;;;2.25;2.00;;;;;;;;3576147;39;114310;-76
2021/04/06 04:22:56;;;;;;;;;2.00;2.00;;;;;;;;3578911;39;111815;-74
2021/04/06 04:25:22;;;;;;;;;2.00;2.00;;;;;;;;3572715;39;112740;-73
2021/04/06 04:27:48;;;;;;;;;0.00;0.00;;;;;;;;3568569;39;114049;-72
2021/04/06 04:30:16;;;;;;;;;2.00;1.00;;;;;;;;3573708;39;113067;-72
2021/04/06 04:32:42;;;;;;;;;2.00;2.00;;;;;;;;3570598;39;113818;-74
2021/04/06 04:35:09;;;;;;;;;1.25;1.25;;;;;;;;3570838;39;112187;-74
2021/04/06 04:37:35;;;;;;;;;2.00;2.00;;;;;;;;3570832;39;113436;-72
2021/04/06 04:40:01;;;;;;;;;2.25;2.00;;;;;;;;3568890;39;113783;-72
2021/04/06 04:42:27;;;;;;;;;3.00;2.00;;;;;;;;3570126;39;112140;-73
2021/04/06 04:44:53;;;;;;;;;2.75;2.00;;;;;;;;3570175;39;113581;-73
2021/04/06 04:47:20;;;;;;;;;2.50;2.50;;;;;;;;3570252;39;114004;-73
2021/04/06 04:49:46;;;;;;;;;2.75;2.00;;;;;;;;3570703;39;112099;-74
2021/04/06 04:52:12;;;;;;;;;2.00;2.00;;;;;;;;3573058;39;113395;-72
2021/04/06 04:54:38;;;;;;;;;1.75;1.75;;;;;;;;3570898;39;111898;-73
2021/04/06 04:57:05;;;;;;;;;3.00;2.00;;;;;;;;3570682;39;113687;-72
2021/04/06 04:59:31;;;;;;;;;2.50;2.50;;;;;;;;3571159;39;114248;-72
2021/04/06 05:01:57;;;;;;;;;2.00;2.00;;;;;;;;3570308;39;111807;-72
2021/04/06 05:04:24;;;;;;;;;1.50;1.50;;;;;;;;3572229;39;112976;-72
2021/04/06 05:06:50;;;;;;;;;3.00;3.00;;;;;;;;3570312;39;114432;-73
2021/04/06 05:09:16;;;;;;;;;2.25;2.25;;;;;;;;3570646;39;111958;-73
2021/04/06 05:11:42;;;;;;;;;1.50;1.50;;;;;;;;3570835;39;113320;-73
2021/04/06 05:14:08;;;;;;;;;3.00;3.00;;;;;;;;3572751;39;113833;-73
2021/04/06 05:16:34;;;;;;;;;2.25;2.25;;;;;;;;3569869;39;113257;-73
2021/04/06 05:19:00;;;;;;;;;2.50;2.50;;;;;;;;3571170;39;113937;-71
2021/04/06 05:21:27;;;;;;;;;2.00;2.00;;;;;;;;3567190;39;112027;-72
2021/04/06 05:23:53;;;;;;;;;4.00;3.00;;;;;;;;3570792;39;113810;-74
2021/04/06 05:26:19;;;;;;;;;2.00;2.00;;;;;;;;3569936;39;113802;-73
2021/04/06 05:28:45;;;;;;;;;4.00;2.00;;;;;;;;3572497;39;111863;-71
2021/04/06 05:31:11;;;;;;;;;5.50;3.75;;;;;;;;3570347;39;113396;-73
2021/04/06 05:33:37;;;;;;;;;3.75;3.75;;;;;;;;3570602;39;114351;-72
2021/04/06 05:36:04;;;;;;;;;6.50;3.00;;;;;;;;3570329;39;112988;-71
2021/04/06 05:38:31;;;;;;;;;3.75;3.75;;;;;;;;3569142;39;114096;-73
2021/04/06 05:40:57;;;;;;;;;6.00;4.50;;;;;;;;3570308;39;111989;-74
2021/04/06 05:43:24;;;;;;;;;2.25;2.25;;;;;;;;3570236;39;113088;-74
2021/04/06 05:45:53;;;;;;;;;5.50;4.00;;;;;;;;3569739;39;112984;-73
2021/04/06 05:48:19;;;;;;;;;4.00;4.00;;;;;;;;3570338;39;112142;-73
2021/04/06 05:50:46;;;;;;;;;6.00;3.50;;;;;;;;3568142;39;113738;-74
2021/04/06 05:53:12;;;;;;;;;4.00;4.00;;;;;;;;3569540;39;114347;-70
2021/04/06 05:55:39;;;;;;;;;4.00;4.00;;;;;;;;3572900;39;111960;-75
2021/04/06 05:59:37;;;;;;;;;3.25;3.25;;;;;;;;3557203;39;903977;-75
2021/04/06 06:02:03;;;;;;;;;3.00;3.00;;;;;;;;3574994;39;116512;-75
2021/04/06 06:04:29;;;;;;;;;3.75;3.00;;;;;;;;3576170;39;111828;-75
2021/04/06 06:06:55;;;;;;;;;6.00;4.00;;;;;;;;3576237;39;113096;-76
2021/04/06 06:09:28;;;;;;;;;6.00;3.00;;;;;;;;3575034;39;114107;-73
2021/04/06 06:12:02;;;;;;;;;4.50;4.50;;;;;;;;3576421;39;112551;-76
2021/04/06 06:14:29;;;;;;;;;3.25;3.25;;;;;;;;3575776;39;112705;-74
2021/04/06 06:16:56;;;;;;;;;3.25;3.25;;;;;;;;3575204;39;114349;-71
2021/04/06 06:19:22;;;;;;;;;3.50;3.25;;;;;;;;3577902;39;112186;-76
2021/04/06 06:21:49;;;;;;;;;4.00;4.00;;;;;;;;3574838;39;114013;-74
2021/04/06 06:24:23;;;;;;;;;5.00;5.00;;;;;;;;3578525;39;112231;-74
2021/04/06 06:26:49;;;;;;;;;5.50;4.00;;;;;;;;3576924;39;113378;-75
2021/04/06 06:29:18;;;;;;;;;7.00;4.50;;;;;;;;3576552;39;113777;-73
2021/04/06 06:31:45;;;;;;;;;8.00;5.25;;;;;;;;3575858;39;112041;-75
2021/04/06 06:34:25;;;;;;;;;4.75;4.75;;;;;;;;3577700;39;113349;-74
2021/04/06 06:37:06;;;;;;;;;7.50;4.00;;;;;;;;3575570;39;113811;-77
2021/04/06 06:39:33;;;;;;;;;7.00;4.00;;;;;;;;3573751;39;112470;-77
2021/04/06 06:42:00;;;;;;;;;5.50;5.50;;;;;;;;3578557;39;113372;-77
2021/04/06 06:44:26;;;;;;;;;6.75;6.75;;;;;;;;3575573;39;112213;-74
2021/04/06 06:47:01;;;;;;;;;5.25;4.00;;;;;;;;3575780;39;115520;-78
2021/04/06 06:49:33;;;;;;;;;7.50;7.00;;;;;;;;3576383;39;114248;-75
2021/04/06 06:51:59;;;;;;;;;6.00;6.00;;;;;;;;3576322;39;111757;-74
2021/04/06 06:54:34;;;;;;;;;6.00;6.00;;;;;;;;3576752;39;113117;-76
2021/04/06 06:57:06;;;;;;;;;4.00;4.00;;;;;;;;3576008;39;113773;-74
2021/04/06 06:59:35;;;;;;;;;10.75;8.50;;;;;;;;3576570;39;112019;-77
2021/04/06 07:02:20;;;;;;;;;16.75;12.50;;;;;;;;3576896;39;113379;-78
2021/04/06 07:04:47;;;;;;;;;6.75;6.25;;;;;;;;3577711;39;114385;-75
2021/04/06 07:07:13;;;;;;;;;8.00;6.00;;;;;;;;3577451;39;113372;-76
2021/04/06 07:09:40;;;;;;;;;7.50;7.00;;;;;;;;3572504;39;114038;-76
2021/04/06 07:12:06;;;;;;;;;8.75;6.75;;;;;;;;3569938;39;112526;-76
2021/04/06 07:14:33;;;;;;;;;7.25;6.75;;;;;;;;3570236;39;113257;-74
2021/04/06 07:17:00;;;;;;;;;6.00;4.00;;;;;;;;3569165;39;114047;-74
2021/04/06 07:19:26;;;;;;;;;5.00;5.00;;;;;;;;3569183;39;112036;-74
2021/04/06 07:21:54;;;;;;;;;8.00;6.00;;;;;;;;3570064;39;113130;-74
2021/04/06 07:24:23;;;;;;;;;4.75;4.00;;;;;;;;3568368;39;113839;-74
2021/04/06 07:26:51;;;;;;;;;4.00;4.00;;;;;;;;3572823;39;111844;-74
2021/04/06 07:29:19;;;;;;;;;9.50;8.50;;;;;;;;3568710;39;113932;-77
2021/04/06 07:31:45;;;;;;;;;6.75;6.75;;;;;;;;3568717;39;111899;-74
2021/04/06 07:34:12;;;;;;;;;8.25;7.25;;;;;;;;3570396;39;113372;-75
2021/04/06 07:36:38;;;;;;;;;8.50;8.25;;;;;;;;3568661;39;113039;-74
2021/04/06 07:39:07;;;;;;;;;10.00;7.50;;;;;;;;3570299;39;111772;-75
2021/04/06 07:41:34;;;;;;;;;8.50;8.00;;;;;;;;3570944;39;113654;-74
2021/04/06 07:44:02;;;;;;;;;8.00;8.00;;;;;;;;3568362;39;114148;-74
2021/04/06 07:46:44;;;;;;;;;11.25;11.25;;;;;;;;3568284;39;111992;-75
2021/04/06 07:49:11;;;;;;;;;8.75;8.75;;;;;;;;3570914;39;113545;-73
2021/04/06 07:51:39;;;;;;;;;11.75;11.00;;;;;;;;3569467;39;112161;-72
2021/04/06 07:54:08;;;;;;;;;8.25;8.00;;;;;;;;3569158;39;113475;-74
2021/04/06 07:56:49;;;;;;;;;11.00;11.00;;;;;;;;3568229;39;113783;-73
2021/04/06 07:59:33;;;;;;;;;14.00;11.75;;;;;;;;3568863;39;111903;-73
2021/04/06 08:02:14;;;;;;;;;12.50;11.00;;;;;;;;3568321;39;114106;-74
2021/04/06 08:04:51;;;;;;;;;12.25;9.25;;;;;;;;3567398;39;113904;-75
2021/04/06 08:07:22;;;;;;;;;10.00;10.00;;;;;;;;3567987;39;112350;-74
2021/04/06 08:09:49;;;;;;;;;10.00;10.00;;;;;;;;3567718;39;113518;-71
2021/04/06 08:12:17;;;;;;;;;12.75;12.25;;;;;;;;3572184;39;111973;-73
2021/04/06 08:15:01;;;;;;;;;11.25;8.00;;;;;;;;3568643;39;113236;-73
2021/04/06 08:17:51;;;;;;;;;14.25;10.50;;;;;;;;3572193;39;116665;-73
2021/04/06 08:20:22;;;;;;;;;12.00;11.00;;;;;;;;3562896;39;112471;-73
2021/04/06 08:22:50;;;;;;;;;14.00;13.00;;;;;;;;3568107;39;114041;-73
2021/04/06 08:25:35;;;;;;;;;15.25;13.75;;;;;;;;3567489;39;113887;-72
2021/04/06 08:28:02;;;;;;;;;13.00;11.50;;;;;;;;3568608;39;112078;-72
2021/04/06 08:30:30;;;;;;;;;9.75;9.75;;;;;;;;3568866;39;113233;-73
2021/04/06 08:33:14;;;;;;;;;10.25;8.75;;;;;;;;3570532;39;114207;-73
2021/04/06 08:35:58;;;;;;;;;14.00;10.00;;;;;;;;3568120;39;114491;-73
2021/04/06 08:38:47;;;;;;;;;12.00;11.25;;;;;;;;3569302;39;113885;-77
2021/04/06 08:41:14;;;;;;;;;10.50;8.75;;;;;;;;3568175;39;112984;-79
2021/04/06 08:43:43;;;;;;;;;8.50;7.75;;;;;;;;3567725;39;113822;-74
2021/04/06 08:46:11;;;;;;;;;13.00;10.25;;;;;;;;3569373;39;113973;-76
2021/04/06 08:48:47;;;;;;;;;9.50;9.50;;;;;;;;3568725;39;111761;-76
2021/04/06 08:51:18;;;;;;;;;8.00;8.00;;;;;;;;3569622;39;113519;-77
2021/04/06 08:53:44;;;;;;;;;8.00;8.00;;;;;;;;3566092;39;114304;-76
2021/04/06 08:56:11;;;;;;;;;13.25;9.50;;;;;;;;3569821;39;112382;-76
2021/04/06 08:58:37;;;;;;;;;10.00;10.00;;;;;;;;3567196;39;113317;-75
2021/04/06 09:01:05;;;;;;;;;10.00;10.00;;;;;;;;3568533;39;112027;-77
2021/04/06 09:03:32;;;;;;;;;11.00;11.00;;;;;;;;3570698;39;113473;-79
2021/04/06 09:06:05;;;;;;;;;13.25;10.00;;;;;;;;3569205;39;113755;-80
2021/04/06 09:08:45;;;;;;;;;15.25;12.75;;;;;;;;3568546;39;111964;-71
2021/04/06 09:11:11;;;;;;;;;12.75;11.00;;;;;;;;3567719;39;113350;-69
2021/04/06 09:13:37;;;;;;;;;11.75;9.00;;;;;;;;3568852;39;114053;-68
2021/04/06 09:16:04;;;;;;;;;10.50;9.00;;;;;;;;3568714;39;111960;-69
2021/04/06 09:18:34;;;;;;;;;14.50;10.50;;;;;;;;3573052;39;114508;-67
2021/04/06 09:21:00;;;;;;;;;8.75;8.50;;;;;;;;3567333;39;111821;-68
2021/04/06 09:23:28;;;;;;;;;10.00;9.50;;;;;;;;3567395;39;113686;-68
2021/04/06 09:25:55;;;;;;;;;10.00;9.50;;;;;;;;3566663;39;113601;-69
2021/04/06 09:28:21;;;;;;;;;10.75;9.50;;;;;;;;3567907;39;111900;-69
2021/04/06 09:30:47;;;;;;;;;11.00;10.50;;;;;;;;3566403;39;113793;-69
2021/04/06 09:33:14;;;;;;;;;10.75;10.50;;;;;;;;3567515;39;114316;-70
2021/04/06 09:35:45;;;;;;;;;14.00;11.00;;;;;;;;3567563;39;112021;-69
2021/04/06 09:38:11;;;;;;;;;11.75;10.25;;;;;;;;3569294;39;113346;-69
2021/04/06 09:40:38;;;;;;;;;10.50;10.00;;;;;;;;3569883;39;114179;-69
2021/04/06 09:43:05;;;;;;;;;13.50;11.25;;;;;;;;3567300;39;113639;-69
2021/04/06 09:45:31;;;;;;;;;11.50;11.50;;;;;;;;3567700;39;114191;-69
2021/04/06 09:47:58;;;;;;;;;10.50;10.25;;;;;;;;3570204;39;112410;-70
2021/04/06 09:50:26;;;;;;;;;8.00;6.50;;;;;;;;3570118;39;113244;-69
2021/04/06 09:52:53;;;;;;;;;10.25;10.25;;;;;;;;3568372;39;114268;-71
2021/04/06 09:55:21;;;;;;;;;8.75;8.50;;;;;;;;3569285;39;111823;-71
2021/04/06 09:57:48;;;;;;;;;9.50;9.50;;;;;;;;3568821;39;113580;-70
2021/04/06 10:00:16;;;;;;;;;9.50;9.50;;;;;;;;3569202;39;114022;-70
2021/04/06 10:02:44;;;;;;;;;11.25;10.00;;;;;;;;3569824;39;112030;-70
2021/04/06 10:05:17;;;;;;;;;9.75;9.50;;;;;;;;3564250;39;112889;-70
2021/04/06 10:07:45;;;;;;;;;14.25;12.00;;;;;;;;3567720;39;112109;-70
2021/04/06 10:10:19;;;;;;;;;11.75;11.75;;;;;;;;3569197;39;113199;-70
2021/04/06 10:12:45;;;;;;;;;8.25;8.25;;;;;;;;3566835;39;114119;-71
2021/04/06 10:15:11;;;;;;;;;11.00;10.00;;;;;;;;3568734;39;111984;-72
2021/04/06 10:17:38;;;;;;;;;10.25;9.75;;;;;;;;3569693;39;113251;-70
2021/04/06 10:20:07;;;;;;;;;37.00;34.00;;;;;;;;3567213;39;114138;-71
2021/04/06 10:22:38;;;;;;;;;16.00;14.00;;;;;;;;3570392;39;111945;-71
2021/04/06 10:25:05;;;;;;;;;14.25;9.75;;;;;;;;3567436;39;114031;-69
2021/04/06 10:27:37;;;;;;;;;12.25;10.50;;;;;;;;3567771;39;113153;-71
2021/04/06 10:30:04;;;;;;;;;10.00;10.00;;;;;;;;3567765;39;113992;-69
2021/04/06 10:32:32;;;;;;;;;12.00;9.25;;;;;;;;3567581;39;114272;-67
2021/04/06 10:35:00;;;;;;;;;10.50;9.50;;;;;;;;3568633;39;112127;-70
2021/04/06 10:37:37;;;;;;;;;8.00;8.00;;;;;;;;3571488;39;113204;-69
2021/04/06 10:40:19;;;;;;;;;15.75;12.50;;;;;;;;3570499;39;114084;-69
2021/04/06 10:42:47;;;;;;;;;12.25;10.75;;;;;;;;3571802;39;112401;-70
2021/04/06 10:45:14;;;;;;;;;10.00;10.00;;;;;;;;3573831;39;113823;-71
2021/04/06 10:47:40;;;;;;;;;12.25;10.25;;;;;;;;3573063;39;111916;-72
2021/04/06 10:50:06;;;;;;;;;15.75;12.00;;;;;;;;3572164;39;113406;-69
2021/04/06 10:52:33;;;;;;;;;13.25;12.25;;;;;;;;3571687;39;114941;-70
2021/04/06 10:55:00;;;;;;;;;13.75;10.25;;;;;;;;3573604;39;112036;-68
2021/04/06 10:57:27;;;;;;;;;13.00;9.75;;;;;;;;3573727;39;113234;-69
2021/04/06 10:59:54;;;;;;;;;12.00;10.50;;;;;;;;3571827;39;114038;-69
2021/04/06 11:02:20;;;;;;;;;12.75;10.00;;;;;;;;3571659;39;112809;-71
2021/04/06 11:04:47;;;;;;;;;9.50;8.50;;;;;;;;3573098;39;113214;-74
2021/04/06 11:07:13;;;;;;;;;10.50;8.50;;;;;;;;3574335;39;114066;-71
2021/04/06 11:09:40;;;;;;;;;11.25;7.00;;;;;;;;3573392;39;113293;-70
2021/04/06 11:12:07;;;;;;;;;13.25;9.25;;;;;;;;3572533;39;113919;-68
2021/04/06 11:14:33;;;;;;;;;8.50;8.00;;;;;;;;3572737;39;112256;-70
2021/04/06 11:17:05;;;;;;;;;6.50;5.25;;;;;;;;3572910;39;112891;-71
2021/04/06 11:19:32;;;;;;;;;3.25;3.00;;;;;;;;3571208;39;113937;-70
2021/04/06 11:21:58;;;;;;;;;3.50;2.25;;;;;;;;3571308;39;112102;-70
2021/04/06 11:24:25;;;;;;;;;2.00;2.00;;;;;;;;3572985;39;113341;-68
2021/04/06 11:26:51;;;;;;;;;2.00;2.00;;;;;;;;3573039;39;113978;-69
2021/04/06 11:29:19;;;;;;;;;1.50;1.50;;;;;;;;3575537;39;112190;-69
2021/04/06 11:31:47;;;;;;;;;3.75;2.50;;;;;;;;3572665;39;113851;-68
2021/04/06 11:34:16;;;;;;;;;7.00;4.00;;;;;;;;3572587;39;112646;-70
2021/04/06 11:36:43;;;;;;;;;2.00;2.00;;;;;;;;3572017;39;113434;-69
2021/04/06 11:39:09;;;;;;;;;3.00;2.00;;;;;;;;3568465;39;113447;-69
2021/04/06 11:41:35;;;;;;;;;1.00;1.00;;;;;;;;3568647;39;112009;-72
2021/04/06 11:44:02;;;;;;;;;2.50;1.75;;;;;;;;3570899;39;113919;-70
2021/04/06 11:46:28;;;;;;;;;2.00;2.00;;;;;;;;3573335;39;113833;-68
2021/04/06 11:48:54;;;;;;;;;1.75;1.75;;;;;;;;3573725;39;111994;-69
2021/04/06 11:51:22;;;;;;;;;2.00;2.00;;;;;;;;3571425;39;113602;-69
2021/04/06 11:53:48;;;;;;;;;0.75;0.50;;;;;;;;3570265;39;112036;-68
2021/04/06 11:56:14;;;;;;;;;0.00;0.00;;;;;;;;3573826;39;113270;-66
2021/04/06 11:58:40;;;;;;;;;0.75;0.75;;;;;;;;3573429;39;113938;-68
2021/04/06 12:01:06;;;;;;;;;0.00;0.00;;;;;;;;3573579;39;111844;-69
2021/04/06 12:03:32;;;;;;;;;0.00;0.00;;;;;;;;3573618;39;113360;-68
2021/04/06 12:05:58;;;;;;;;;0.00;0.00;;;;;;;;3572926;39;115318;-68
2021/04/06 12:08:25;;;;;;;;;0.00;0.00;;;;;;;;3572548;39;113955;-68
2021/04/06 12:10:52;;;;;;;;;0.00;0.00;;;;;;;;3573403;39;113301;-68
2021/04/06 12:13:18;;;;;;;;;0.00;0.00;;;;;;;;3575731;39;113973;-68
2021/04/06 12:15:44;;;;;;;;;0.00;0.00;;;;;;;;3571758;39;113580;-69
2021/04/06 12:18:10;;;;;;;;;1.00;0.00;;;;;;;;3567412;39;113919;-68
2021/04/06 12:20:36;;;;;;;;;0.00;0.00;;;;;;;;3564809;39;112177;-68
2021/04/06 12:23:02;;;;;;;;;0.00;0.00;;;;;;;;3572098;39;113603;-68
2021/04/06 12:25:30;;;;;;;;;0.00;0.00;;;;;;;;3568850;39;113959;-70
2021/04/06 12:27:56;;;;;;;;;0.00;0.00;;;;;;;;3569602;39;111958;-68
2021/04/06 12:30:22;;;;;;;;;0.00;0.00;;;;;;;;3568889;39;113506;-68
2021/04/06 12:32:48;;;;;;;;;1.25;0.00;;;;;;;;3567101;39;113034;-69
2021/04/06 12:35:15;;;;;;;;;0.00;0.00;;;;;;;;3568717;39;113760;-68
2021/04/06 12:37:41;;;;;;;;;0.00;0.00;;;;;;;;3572348;39;114082;-69
2021/04/06 12:40:07;;;;;;;;;1.50;1.00;;;;;;;;3573113;39;111806;-67
2021/04/06 12:42:35;;;;;;;;;0.00;0.00;;;;;;;;3571089;39;113189;-69
2021/04/06 12:45:01;;;;;;;;;0.00;0.00;;;;;;;;3567092;39;113956;-68
2021/04/06 12:47:27;;;;;;;;;0.00;0.00;;;;;;;;3570068;39;112409;-68
2021/04/06 12:49:53;;;;;;;;;0.00;0.00;;;;;;;;3569100;39;113668;-69
2021/04/06 12:52:19;;;;;;;;;0.00;0.00;;;;;;;;3573246;39;114021;-68
2021/04/06 12:54:45;;;;;;;;;0.00;0.00;;;;;;;;3571926;39;111780;-69
2021/04/06 12:57:11;;;;;;;;;0.00;0.00;;;;;;;;3568046;39;113888;-68
2021/04/06 12:59:41;;;;;;;;;0.00;0.00;;;;;;;;3570390;39;112023;-68
2021/04/06 13:02:07;;;;;;;;;0.00;0.00;;;;;;;;3569918;39;114254;-68
2021/04/06 13:04:33;;;;;;;;;0.00;0.00;;;;;;;;3568659;39;114162;-71
2021/04/06 13:06:59;;;;;;;;;0.00;0.00;;;;;;;;3568874;39;111902;-68
2021/04/06 13:09:26;;;;;;;;;0.75;0.00;;;;;;;;3569596;39;113106;-75
2021/04/06 13:11:52;;;;;;;;;0.00;0.00;;;;;;;;3568192;39;112996;-74
2021/04/06 13:14:18;;;;;;;;;0.75;0.00;;;;;;;;3567769;39;112111;-76
2021/04/06 13:16:45;;;;;;;;;0.00;0.00;;;;;;;;3570112;39;113258;-77
2021/04/06 13:19:11;;;;;;;;;1.00;0.00;;;;;;;;3570452;39;112059;-78
2021/04/06 13:21:37;;;;;;;;;0.00;0.00;;;;;;;;3568439;39;113258;-76
2021/04/06 13:24:03;;;;;;;;;0.00;0.00;;;;;;;;3568647;39;114176;-76
2021/04/06 13:26:29;;;;;;;;;0.00;0.00;;;;;;;;3567918;39;112608;-76
2021/04/06 13:28:55;;;;;;;;;0.00;0.00;;;;;;;;3569871;39;113763;-76
2021/04/06 13:31:22;;;;;;;;;0.00;0.00;;;;;;;;3573896;39;113691;-77
2021/04/06 13:33:49;;;;;;;;;0.00;0.00;;;;;;;;3573446;39;112348;-77
2021/04/06 13:36:15;;;;;;;;;0.00;0.00;;;;;;;;3571154;39;113838;-77
2021/04/06 13:38:41;;;;;;;;;1.00;0.00;;;;;;;;3570444;39;113948;-77
2021/04/06 13:41:07;;;;;;;;;0.00;0.00;;;;;;;;3570521;39;113827;-76
2021/04/06 13:43:33;;;;;;;;;0.00;0.00;;;;;;;;3569822;39;114477;-78
2021/04/06 13:45:59;;;;;;;;;0.00;0.00;;;;;;;;3569787;39;112293;-74
2021/04/06 13:48:25;;;;;;;;;0.00;0.00;;;;;;;;3569216;39;113796;-75
2021/04/06 13:50:52;;;;;;;;;0.00;0.00;;;;;;;;3568028;39;113888;-75
2021/04/06 13:53:18;;;;;;;;;0.00;0.00;;;;;;;;3571799;39;111798;-75
2021/04/06 13:55:45;;;;;;;;;0.00;0.00;;;;;;;;3573298;39;113235;-76
2021/04/06 13:58:12;;;;;;;;;1.00;0.00;;;;;;;;3572868;39;114239;-75
2021/04/06 14:00:40;;;;;;;;;0.00;0.00;;;;;;;;3575670;39;111996;-74
2021/04/06 14:03:07;;;;;;;;;0.00;0.00;;;;;;;;3572849;39;113846;-75
2021/04/06 14:05:33;;;;;;;;;0.00;0.00;;;;;;;;3572980;39;112345;-75
2021/04/06 14:08:00;;;;;;;;;0.00;0.00;;;;;;;;3573287;39;112840;-74
2021/04/06 14:10:27;;;;;;;;;0.00;0.00;;;;;;;;3571475;39;113832;-76
2021/04/06 14:12:54;;;;;;;;;0.00;0.00;;;;;;;;3571340;39;112327;-76
2021/04/06 14:15:20;;;;;;;;;0.00;0.00;;;;;;;;3572420;39;113998;-74
2021/04/06 14:17:46;;;;;;;;;0.00;0.00;;;;;;;;3572031;39;114560;-76
2021/04/06 14:20:14;;;;;;;;;0.00;0.00;;;;;;;;3572106;39;111932;-76
2021/04/06 14:22:40;;;;;;;;;0.00;0.00;;;;;;;;3577846;39;112281;-75
2021/04/06 14:25:08;;;;;;;;;0.50;0.00;;;;;;;;3573309;39;112320;-76
2021/04/06 14:27:34;;;;;;;;;0.00;0.00;;;;;;;;3574555;39;113407;-75
2021/04/06 14:30:00;;;;;;;;;0.00;0.00;;;;;;;;3572602;39;114033;-75
2021/04/06 14:32:29;;;;;;;;;0.00;0.00;;;;;;;;3572447;39;112702;-75